Time;durP1;ratioP1;P1;durP2;ratioP2;P2;SDS_P1;SDS_P2;PMS_P1;PMS_P2;Temp;Humidity;BMP_temperature;BMP_pressure;BME280_temperature;BME280_humidity;BME280_pressure;Samples;Min_cycle;Max_cycle;Signal;HPM_P1;HPM_P2
2022/07/17 00:00:42;;;;;;;2.83;1.90;;;16.70;98.00;;;;;;5052568;28;20481;-70
2022/07/17 00:03:10;;;;;;;2.60;2.07;;;16.60;98.00;;;;;;5053060;28;20461;-70
2022/07/17 00:05:37;;;;;;;3.43;2.07;;;16.80;98.00;;;;;;5052908;28;20464;-70
2022/07/17 00:08:08;;;;;;;2.40;2.20;;;16.70;98.00;;;;;;5052434;28;20469;-70
2022/07/17 00:10:36;;;;;;;7.70;1.80;;;16.50;98.00;;;;;;5052442;28;21165;-71
2022/07/17 00:13:04;;;;;;;4.27;2.00;;;16.40;98.00;;;;;;5052722;28;20959;-72
2022/07/17 00:15:31;;;;;;;2.97;1.70;;;16.40;98.00;;;;;;5052448;28;20457;-69
2022/07/17 00:18:01;;;;;;;3.23;1.90;;;16.50;98.00;;;;;;5052588;28;20472;-72
2022/07/17 00:20:29;;;;;;;2.80;2.00;;;16.50;98.00;;;;;;5052452;28;20497;-70
2022/07/17 00:22:57;;;;;;;2.73;2.03;;;16.50;98.00;;;;;;5052424;28;20458;-71
2022/07/17 00:25:26;;;;;;;4.13;2.17;;;16.40;98.00;;;;;;5052201;28;20481;-70
2022/07/17 00:27:53;;;;;;;3.20;2.10;;;16.50;98.00;;;;;;5052147;28;20464;-72
2022/07/17 00:30:21;;;;;;;3.30;2.07;;;16.40;98.00;;;;;;5052023;28;21092;-72
2022/07/17 00:32:48;;;;;;;3.13;2.30;;;16.30;98.00;;;;;;5052162;28;20461;-72
2022/07/17 00:35:16;;;;;;;2.50;1.90;;;16.20;98.00;;;;;;5052026;28;20548;-70
2022/07/17 00:37:44;;;;;;;2.77;1.97;;;16.00;98.00;;;;;;5052103;28;20450;-71
2022/07/17 00:40:14;;;;;;;3.17;1.80;;;16.00;98.00;;;;;;5052085;28;20487;-70
2022/07/17 00:42:44;;;;;;;3.17;1.90;;;16.10;98.00;;;;;;5051889;28;20536;-72
2022/07/17 00:45:12;;;;;;;3.83;2.27;;;15.90;98.00;;;;;;5051965;28;20461;-70
2022/07/17 00:47:51;;;;;;;3.67;1.83;;;15.80;98.00;;;;;;5050554;28;20979;-73
2022/07/17 00:50:19;;;;;;;2.30;1.80;;;15.80;98.00;;;;;;5050585;28;20464;-70
2022/07/17 00:52:46;;;;;;;4.07;2.10;;;15.80;98.00;;;;;;5051886;28;20857;-72
2022/07/17 00:55:14;;;;;;;3.67;2.50;;;15.90;98.00;;;;;;5051897;28;21003;-72
2022/07/17 00:57:46;;;;;;;2.27;1.70;;;15.80;98.00;;;;;;5051806;28;20450;-70
2022/07/17 01:00:14;;;;;;;4.87;2.37;;;15.70;98.00;;;;;;5051622;28;20508;-72
2022/07/17 01:02:41;;;;;;;2.40;1.70;;;15.50;98.00;;;;;;5051787;28;20462;-72
2022/07/17 01:05:08;;;;;;;3.60;2.50;;;15.50;98.00;;;;;;5051690;28;20453;-69
2022/07/17 01:07:36;;;;;;;3.00;1.97;;;15.60;98.00;;;;;;5050352;28;20465;-71
2022/07/17 01:10:03;;;;;;;2.63;2.20;;;15.50;98.00;;;;;;5050710;28;20462;-70
2022/07/17 01:12:31;;;;;;;2.73;2.00;;;15.60;98.00;;;;;;5051718;28;20487;-69
2022/07/17 01:15:02;;;;;;;3.93;2.30;;;15.70;98.00;;;;;;5052096;28;20462;-70
2022/07/17 01:17:29;;;;;;;5.07;2.37;;;15.50;98.00;;;;;;5051638;28;20876;-72
2022/07/17 01:20:01;;;;;;;2.30;1.77;;;15.40;98.00;;;;;;5051353;28;20477;-73
2022/07/17 01:22:30;;;;;;;2.77;2.03;;;15.40;98.00;;;;;;5051509;28;20604;-72
2022/07/17 01:24:57;;;;;;;3.87;2.27;;;15.40;98.00;;;;;;5051386;28;20800;-72
2022/07/17 01:27:24;;;;;;;3.67;2.30;;;15.20;98.00;;;;;;5051157;28;20457;-72
2022/07/17 01:29:51;;;;;;;3.43;1.97;;;15.30;98.00;;;;;;5051435;28;20461;-71
2022/07/17 01:32:19;;;;;;;3.07;2.07;;;15.30;98.00;;;;;;5051281;28;20468;-70
2022/07/17 01:34:46;;;;;;;4.43;2.20;;;15.20;98.00;;;;;;5052286;28;20830;-69
2022/07/17 01:37:15;;;;;;;3.30;1.90;;;15.20;98.00;;;;;;5052448;28;20457;-70
2022/07/17 01:39:55;;;;;;;3.27;1.73;;;15.20;98.00;;;;;;5052226;28;20497;-70
2022/07/17 01:42:24;;;;;;;3.03;2.10;;;15.10;98.00;;;;;;5051249;28;20449;-70
2022/07/17 01:44:52;;;;;;;4.70;2.27;;;15.10;98.00;;;;;;5051394;28;20461;-71
2022/07/17 01:47:20;;;;;;;3.17;1.87;;;15.10;98.00;;;;;;5052124;28;20461;-70
2022/07/17 01:49:48;;;;;;;3.90;2.07;;;15.30;98.00;;;;;;5052359;28;20458;-72
2022/07/17 01:52:16;;;;;;;2.70;2.30;;;15.40;98.00;;;;;;5052058;28;20450;-70
2022/07/17 01:54:45;;;;;;;2.60;1.90;;;15.30;98.00;;;;;;5051298;28;20983;-72
2022/07/17 01:57:13;;;;;;;2.97;2.17;;;15.40;98.00;;;;;;5051398;28;20538;-71
2022/07/17 01:59:42;;;;;;;3.63;2.33;;;15.20;98.00;;;;;;5051257;28;21018;-71
2022/07/17 02:02:09;;;;;;;7.50;2.23;;;15.10;98.00;;;;;;5051315;28;20461;-71
2022/07/17 02:04:38;;;;;;;2.37;1.90;;;15.10;98.00;;;;;;5051059;28;20468;-72
2022/07/17 02:07:06;;;;;;;1.73;1.60;;;15.10;98.00;;;;;;5051195;28;20458;-69
2022/07/17 02:09:33;;;;;;;4.27;2.20;;;15.00;98.00;;;;;;5049637;28;20505;-72
2022/07/17 02:12:02;;;;;;;3.53;2.23;;;15.00;98.00;;;;;;5051196;28;20465;-71
2022/07/17 02:14:30;;;;;;;3.50;2.00;;;15.00;98.00;;;;;;5051139;28;20462;-70
2022/07/17 02:16:57;;;;;;;3.90;2.00;;;14.90;98.00;;;;;;5050936;28;20453;-70
2022/07/17 02:19:24;;;;;;;4.00;2.30;;;15.00;98.00;;;;;;5050800;28;20767;-70
2022/07/17 02:21:52;;;;;;;2.70;2.10;;;15.00;98.00;;;;;;5050346;28;20971;-72
2022/07/17 02:24:19;;;;;;;2.67;2.17;;;14.90;98.00;;;;;;5053986;28;20511;-70
2022/07/17 02:26:47;;;;;;;3.00;2.13;;;14.80;98.00;;;;;;5054530;28;20460;-72
2022/07/17 02:29:15;;;;;;;3.03;2.27;;;14.70;98.00;;;;;;5054872;28;20453;-72
2022/07/17 02:31:43;;;;;;;3.10;2.20;;;14.50;98.00;;;;;;5054417;28;20472;-71
2022/07/17 02:34:10;;;;;;;3.20;2.30;;;14.50;98.00;;;;;;5054380;28;20453;-72
2022/07/17 02:36:37;;;;;;;2.50;1.70;;;14.50;98.00;;;;;;5054311;28;20888;-70
2022/07/17 02:39:08;;;;;;;3.30;2.00;;;14.40;98.00;;;;;;5054357;28;20450;-71
2022/07/17 02:41:35;;;;;;;2.73;1.90;;;14.40;98.00;;;;;;5054400;28;20493;-71
2022/07/17 02:44:02;;;;;;;2.37;1.97;;;14.40;98.00;;;;;;5054304;28;20479;-70
2022/07/17 02:46:31;;;;;;;3.37;2.83;;;14.40;98.00;;;;;;5054259;28;20457;-70
2022/07/17 02:48:58;;;;;;;4.43;2.13;;;14.50;98.00;;;;;;5054191;28;20826;-69
2022/07/17 02:51:25;;;;;;;3.50;2.00;;;14.40;98.00;;;;;;5054203;28;20454;-71
2022/07/17 02:53:52;;;;;;;4.43;2.33;;;14.30;98.00;;;;;;5054299;28;20458;-72
2022/07/17 02:56:20;;;;;;;5.50;2.20;;;14.40;98.00;;;;;;5053998;28;20450;-70
2022/07/17 02:58:47;;;;;;;2.73;1.90;;;14.40;98.00;;;;;;5052806;28;20472;-72
2022/07/17 03:01:14;;;;;;;2.90;2.13;;;14.20;98.00;;;;;;5053847;28;20489;-70
2022/07/17 03:03:42;;;;;;;2.20;1.90;;;14.20;98.00;;;;;;5054149;28;20470;-71
2022/07/17 03:06:10;;;;;;;4.47;2.50;;;14.20;98.00;;;;;;5053949;28;20458;-70
2022/07/17 03:08:37;;;;;;;4.60;2.30;;;14.30;98.00;;;;;;5052710;28;20461;-70
2022/07/17 03:11:04;;;;;;;2.10;1.80;;;14.20;98.00;;;;;;5053712;28;20465;-69
2022/07/17 03:13:32;;;;;;;3.20;1.73;;;14.50;98.00;;;;;;5053605;28;20453;-72
2022/07/17 03:15:59;;;;;;;3.10;2.10;;;14.50;98.00;;;;;;5052472;28;20987;-71
2022/07/17 03:18:26;;;;;;;3.70;2.30;;;14.40;98.00;;;;;;5052287;28;20959;-72
2022/07/17 03:20:55;;;;;;;5.50;2.10;;;14.40;98.00;;;;;;5053274;28;20983;-70
2022/07/17 03:23:22;;;;;;;2.30;1.80;;;14.40;98.00;;;;;;5052441;28;20464;-71
2022/07/17 03:25:49;;;;;;;2.83;1.73;;;14.30;98.00;;;;;;5053376;28;20970;-72
2022/07/17 03:28:16;;;;;;;2.50;1.90;;;14.40;98.00;;;;;;5052349;28;20772;-72
2022/07/17 03:30:44;;;;;;;2.37;1.73;;;14.40;98.00;;;;;;5053368;28;20811;-69
2022/07/17 03:33:11;;;;;;;3.87;2.23;;;14.50;98.00;;;;;;5051543;28;20484;-70
2022/07/17 03:35:39;;;;;;;2.13;1.80;;;14.40;98.00;;;;;;5052963;28;20524;-71
2022/07/17 03:38:07;;;;;;;3.30;2.00;;;14.10;98.00;;;;;;5052945;28;20454;-71
2022/07/17 03:40:34;;;;;;;3.33;1.77;;;14.00;98.00;;;;;;5051984;28;20508;-72
2022/07/17 03:43:02;;;;;;;2.90;2.00;;;13.90;98.00;;;;;;5053409;28;20458;-71
2022/07/17 03:45:29;;;;;;;1.87;1.50;;;14.00;98.00;;;;;;5053434;28;20852;-71
2022/07/17 03:47:56;;;;;;;2.80;1.90;;;13.80;98.00;;;;;;5052160;28;20988;-71
2022/07/17 03:50:24;;;;;;;2.33;1.70;;;13.70;98.00;;;;;;5052996;28;20454;-72
2022/07/17 03:52:51;;;;;;;1.87;1.63;;;13.70;98.00;;;;;;5052886;28;20450;-71
2022/07/17 03:55:20;;;;;;;1.77;1.50;;;13.60;98.00;;;;;;5051735;28;20462;-70
2022/07/17 03:57:47;;;;;;;2.00;1.80;;;13.70;98.00;;;;;;5052873;28;20454;-71
2022/07/17 04:00:16;;;;;;;2.30;1.80;;;13.90;98.00;;;;;;5052883;28;20473;-69
2022/07/17 04:02:43;;;;;;;3.37;2.03;;;13.90;98.00;;;;;;5053001;28;20465;-72
2022/07/17 04:05:11;;;;;;;3.17;2.17;;;13.80;98.00;;;;;;5053311;28;20504;-69
2022/07/17 04:07:38;;;;;;;2.17;1.70;;;13.80;98.00;;;;;;5053418;28;20870;-71
2022/07/17 04:10:07;;;;;;;3.07;1.90;;;13.90;98.00;;;;;;5053449;28;20454;-71
2022/07/17 04:12:35;;;;;;;2.93;1.90;;;13.80;98.00;;;;;;5053022;28;20460;-69
2022/07/17 04:15:48;;;;;;;2.30;1.80;;;13.70;98.00;;;;;;5052845;28;20454;-71
2022/07/17 04:18:01;;;;;;;2.60;1.57;;;13.80;98.00;;;;;;5052612;28;20537;-70
2022/07/17 04:20:28;;;;;;;1.77;1.70;;;13.80;98.00;;;;;;5052612;28;20478;-72
2022/07/17 04:22:55;;;;;;;2.90;1.90;;;13.80;98.00;;;;;;5052370;28;20460;-70
2022/07/17 04:25:23;;;;;;;2.43;1.53;;;13.90;98.00;;;;;;5052368;28;20457;-70
2022/07/17 04:27:51;;;;;;;3.43;1.90;;;14.00;98.00;;;;;;5052220;28;20457;-71
2022/07/17 04:30:18;;;;;;;2.77;1.90;;;13.90;98.00;;;;;;5050926;28;20801;-70
2022/07/17 04:32:46;;;;;;;1.70;1.43;;;13.90;98.00;;;;;;5052131;28;20973;-71
2022/07/17 04:35:13;;;;;;;6.43;2.23;;;13.90;98.00;;;;;;5052092;28;20458;-70
2022/07/17 04:37:41;;;;;;;4.60;2.03;;;13.90;98.00;;;;;;5050768;28;20468;-71
2022/07/17 04:40:09;;;;;;;2.90;1.73;;;13.80;98.00;;;;;;5052003;28;20823;-69
2022/07/17 04:42:36;;;;;;;3.30;2.30;;;13.70;98.00;;;;;;5051796;28;20457;-69
2022/07/17 04:45:06;;;;;;;4.33;2.30;;;13.70;98.00;;;;;;5051523;28;20524;-71
2022/07/17 04:47:34;;;;;;;4.17;2.00;;;13.80;98.00;;;;;;5051867;28;20964;-72
2022/07/17 04:50:01;;;;;;;2.43;1.80;;;13.80;98.00;;;;;;5052160;28;20465;-72
2022/07/17 04:52:29;;;;;;;2.90;1.80;;;13.90;98.00;;;;;;5051760;28;20958;-70
2022/07/17 04:54:56;;;;;;;2.93;2.10;;;14.00;98.00;;;;;;5051889;28;20468;-72
2022/07/17 04:57:23;;;;;;;3.97;2.10;;;13.90;98.00;;;;;;5050901;28;20477;-70
2022/07/17 04:59:51;;;;;;;3.43;2.10;;;14.10;98.00;;;;;;5051743;28;20454;-70
2022/07/17 05:02:19;;;;;;;2.10;1.97;;;14.20;98.00;;;;;;5051703;28;20516;-72
2022/07/17 05:04:47;;;;;;;4.63;2.50;;;14.20;98.00;;;;;;5051890;28;20936;-72
2022/07/17 05:07:14;;;;;;;2.53;2.10;;;14.00;98.00;;;;;;5050688;28;20454;-70
2022/07/17 05:09:42;;;;;;;4.90;2.17;;;14.10;98.00;;;;;;5050426;28;20457;-71
2022/07/17 05:12:09;;;;;;;3.33;2.10;;;14.10;98.00;;;;;;5050446;28;20450;-70
2022/07/17 05:14:36;;;;;;;2.27;2.10;;;14.10;98.00;;;;;;5051519;28;20457;-69
2022/07/17 05:17:04;;;;;;;2.73;1.83;;;14.10;98.00;;;;;;5050236;28;20457;-69
2022/07/17 05:19:32;;;;;;;2.37;1.87;;;14.20;98.00;;;;;;5051429;28;20449;-71
2022/07/17 05:22:00;;;;;;;4.43;2.23;;;14.30;98.00;;;;;;5050018;28;20560;-71
2022/07/17 05:24:27;;;;;;;2.60;1.80;;;14.50;98.00;;;;;;5051254;28;20453;-72
2022/07/17 05:26:55;;;;;;;3.93;2.50;;;14.60;98.00;;;;;;5049939;28;20543;-73
2022/07/17 05:29:22;;;;;;;3.17;2.20;;;14.70;98.00;;;;;;5051695;28;20465;-72
2022/07/17 05:31:50;;;;;;;2.83;1.90;;;15.00;98.00;;;;;;5051061;28;20461;-70
2022/07/17 05:34:17;;;;;;;4.50;2.00;;;15.20;98.00;;;;;;5051073;28;20454;-72
2022/07/17 05:36:47;;;;;;;2.53;1.83;;;15.40;98.00;;;;;;5051057;28;20472;-72
2022/07/17 05:39:14;;;;;;;3.60;2.20;;;15.50;98.00;;;;;;5051353;28;20912;-73
2022/07/17 05:41:42;;;;;;;3.63;2.00;;;15.50;98.00;;;;;;5050802;28;20489;-71
2022/07/17 05:44:09;;;;;;;4.53;2.47;;;15.60;98.00;;;;;;5051116;28;20458;-71
2022/07/17 05:46:38;;;;;;;4.33;2.20;;;15.70;98.00;;;;;;5050979;28;20441;-72
2022/07/17 05:49:05;;;;;;;4.23;2.60;;;15.90;98.00;;;;;;5051247;28;20454;-73
2022/07/17 05:51:33;;;;;;;3.70;2.67;;;15.90;98.00;;;;;;5051034;28;20525;-71
2022/07/17 05:54:01;;;;;;;3.87;2.50;;;16.10;98.00;;;;;;5050477;28;20460;-73
2022/07/17 05:56:28;;;;;;;3.53;2.27;;;16.10;98.00;;;;;;5051069;28;20959;-72
2022/07/17 05:58:55;;;;;;;2.27;2.03;;;16.20;98.00;;;;;;5055352;28;20454;-72
2022/07/17 06:01:22;;;;;;;4.07;2.80;;;16.30;98.00;;;;;;5055010;28;21042;-71
2022/07/17 06:03:50;;;;;;;2.43;1.90;;;16.40;98.00;;;;;;5054149;28;20837;-70
2022/07/17 06:06:17;;;;;;;2.40;2.00;;;16.60;98.00;;;;;;5020948;28;20466;-72
2022/07/17 06:08:45;;;;;;;4.27;2.57;;;16.70;98.00;;;;;;5054800;28;20450;-70
2022/07/17 06:11:14;;;;;;;3.30;2.37;;;16.80;98.00;;;;;;5054912;28;20449;-70
2022/07/17 06:13:41;;;;;;;3.53;2.30;;;16.90;98.00;;;;;;5054945;28;20462;-72
2022/07/17 06:16:10;;;;;;;4.97;2.93;;;16.90;98.00;;;;;;5054847;28;20453;-70
2022/07/17 06:18:37;;;;;;;3.23;2.57;;;16.90;98.00;;;;;;5054915;28;20955;-71
2022/07/17 06:21:04;;;;;;;3.00;2.33;;;17.00;98.00;;;;;;5054428;28;20481;-70
2022/07/17 06:23:31;;;;;;;3.83;2.40;;;17.00;98.00;;;;;;5053278;28;20952;-72
2022/07/17 06:25:58;;;;;;;3.40;2.23;;;17.10;98.00;;;;;;5054602;28;20778;-72
2022/07/17 06:28:27;;;;;;;5.07;2.37;;;17.20;98.00;;;;;;5054237;28;20450;-72
2022/07/17 06:30:54;;;;;;;3.20;2.37;;;17.40;98.00;;;;;;5054318;28;20458;-72
2022/07/17 06:33:21;;;;;;;3.57;2.43;;;17.50;98.00;;;;;;5054316;28;20461;-72
2022/07/17 06:35:49;;;;;;;5.70;2.93;;;17.60;98.00;;;;;;5052902;28;20799;-72
2022/07/17 06:38:16;;;;;;;3.27;2.37;;;17.60;98.00;;;;;;5052729;28;20511;-72
2022/07/17 06:40:45;;;;;;;3.70;2.20;;;17.70;98.00;;;;;;5053424;28;20808;-72
2022/07/17 06:43:13;;;;;;;4.80;2.60;;;17.80;98.00;;;;;;5054237;28;20507;-72
2022/07/17 06:45:41;;;;;;;3.17;2.17;;;17.80;98.00;;;;;;5054146;28;20457;-71
2022/07/17 06:48:08;;;;;;;4.00;2.97;;;17.90;98.00;;;;;;5053999;28;20966;-72
2022/07/17 06:50:36;;;;;;;3.60;2.37;;;18.00;98.00;;;;;;5053930;28;21024;-72
2022/07/17 06:53:03;;;;;;;3.97;2.47;;;18.20;98.00;;;;;;5054019;28;20469;-72
2022/07/17 06:55:30;;;;;;;3.03;2.00;;;18.30;98.00;;;;;;5053849;28;20963;-72
2022/07/17 06:57:57;;;;;;;3.47;2.10;;;18.40;98.00;;;;;;5053966;28;20477;-71
2022/07/17 07:00:24;;;;;;;6.00;2.60;;;18.60;98.00;;;;;;5053936;28;20461;-72
2022/07/17 07:02:54;;;;;;;3.90;2.17;;;18.70;98.00;;;;;;5053766;28;20886;-72
2022/07/17 07:05:22;;;;;;;3.47;2.43;;;18.80;98.00;;;;;;5054188;28;20826;-73
2022/07/17 07:07:49;;;;;;;4.20;2.43;;;19.00;98.00;;;;;;5053594;28;20461;-72
2022/07/17 07:10:17;;;;;;;3.50;2.00;;;19.20;98.00;;;;;;5053774;28;21010;-72
2022/07/17 07:12:45;;;;;;;2.93;1.97;;;19.30;98.00;;;;;;5053860;28;20608;-72
2022/07/17 07:15:12;;;;;;;4.07;2.57;;;19.40;97.90;;;;;;5052122;28;20846;-72
2022/07/17 07:17:39;;;;;;;2.73;2.10;;;19.50;97.00;;;;;;5053537;28;20809;-72
2022/07/17 07:20:10;;;;;;;3.03;1.90;;;19.80;97.40;;;;;;5054105;28;20476;-71
2022/07/17 07:22:37;;;;;;;4.00;2.53;;;19.90;96.90;;;;;;5053385;28;20485;-72
2022/07/17 07:25:05;;;;;;;2.70;1.83;;;20.00;95.90;;;;;;5051963;28;20904;-72
2022/07/17 07:27:33;;;;;;;2.63;2.07;;;20.10;94.70;;;;;;5053326;28;20454;-72
2022/07/17 07:30:00;;;;;;;3.17;2.30;;;20.20;93.90;;;;;;5052052;28;20507;-72
2022/07/17 07:32:27;;;;;;;3.50;2.13;;;20.30;93.80;;;;;;5053329;28;20453;-73
2022/07/17 07:34:54;;;;;;;4.17;2.30;;;20.40;93.10;;;;;;5049757;28;20450;-73
2022/07/17 07:37:23;;;;;;;3.50;2.27;;;20.50;94.30;;;;;;5032568;28;20450;-73
2022/07/17 07:39:50;;;;;;;2.83;2.17;;;20.70;93.10;;;;;;5032421;28;20465;-73
2022/07/17 07:42:17;;;;;;;3.03;2.33;;;20.90;91.30;;;;;;5032289;28;20509;-73
2022/07/17 07:44:44;;;;;;;3.40;2.17;;;20.90;91.20;;;;;;5050180;28;20450;-73
2022/07/17 07:47:12;;;;;;;4.50;2.30;;;21.10;90.80;;;;;;5032703;28;20458;-73
2022/07/17 07:49:39;;;;;;;4.23;2.33;;;21.20;91.00;;;;;;5047841;28;20952;-73
2022/07/17 07:52:06;;;;;;;2.60;1.90;;;21.30;88.80;;;;;;5049925;28;20956;-66
2022/07/17 07:54:35;;;;;;;4.33;1.90;;;21.50;94.50;;;;;;5032452;28;20449;-67
2022/07/17 07:57:03;;;;;;;2.77;2.13;;;21.80;93.20;;;;;;5050412;28;20461;-67
2022/07/17 07:59:32;;;;;;;2.43;1.63;;;22.10;94.40;;;;;;5050328;28;20454;-67
2022/07/17 08:01:59;;;;;;;3.00;2.00;;;22.40;88.60;;;;;;5049798;28;20489;-67
2022/07/17 08:04:26;;;;;;;2.57;2.00;;;22.50;90.00;;;;;;5050200;28;20501;-66
2022/07/17 08:06:54;;;;;;;3.10;1.93;;;22.70;88.80;;;;;;5050386;28;20951;-66
2022/07/17 08:09:26;;;;;;;3.20;2.00;;;22.90;90.10;;;;;;5049683;28;20458;-66
2022/07/17 08:11:54;;;;;;;2.67;1.77;;;23.10;89.30;;;;;;5033029;28;20937;-66
2022/07/17 08:14:23;;;;;;;2.40;1.90;;;23.30;88.60;;;;;;5050230;28;20457;-66
2022/07/17 08:16:51;;;;;;;2.90;2.20;;;23.40;87.10;;;;;;5049857;28;20466;-66
2022/07/17 08:19:18;;;;;;;2.90;2.13;;;23.40;86.30;;;;;;5049344;28;20454;-67
2022/07/17 08:21:45;;;;;;;2.40;1.90;;;23.60;84.40;;;;;;5049464;28;20594;-67
2022/07/17 08:24:14;;;;;;;2.60;1.90;;;23.70;86.20;;;;;;5049606;28;20457;-67
2022/07/17 08:26:41;;;;;;;2.43;2.10;;;23.80;84.00;;;;;;5031878;28;20930;-67
2022/07/17 08:29:11;;;;;;;3.67;2.40;;;23.80;85.30;;;;;;5049662;28;20461;-66
2022/07/17 08:31:38;;;;;;;4.10;2.40;;;23.80;83.10;;;;;;5049594;28;20462;-66
2022/07/17 08:34:11;;;;;;;3.13;2.43;;;23.80;83.20;;;;;;5049840;28;20462;-67
2022/07/17 08:36:38;;;;;;;3.13;2.07;;;23.90;84.20;;;;;;5049298;28;20470;-67
2022/07/17 08:39:10;;;;;;;4.60;2.40;;;24.00;85.00;;;;;;5049684;28;20458;-67
2022/07/17 08:41:39;;;;;;;5.10;2.47;;;24.10;83.00;;;;;;5049043;28;20462;-67
2022/07/17 08:44:07;;;;;;;2.87;1.87;;;24.10;81.40;;;;;;5049786;28;20450;-71
2022/07/17 08:46:37;;;;;;;2.73;2.23;;;24.20;82.00;;;;;;5048858;28;20805;-72
2022/07/17 08:49:07;;;;;;;3.23;2.10;;;24.40;80.60;;;;;;5051338;28;20465;-75
2022/07/17 08:51:35;;;;;;;2.90;2.10;;;24.30;80.40;;;;;;5052174;28;20473;-75
2022/07/17 08:54:03;;;;;;;2.90;2.13;;;24.20;80.50;;;;;;5052632;28;20453;-74
2022/07/17 08:56:30;;;;;;;3.00;2.40;;;24.40;78.90;;;;;;5051529;28;20450;-75
2022/07/17 08:58:57;;;;;;;3.33;2.20;;;24.60;79.40;;;;;;5052176;28;20460;-74
2022/07/17 09:01:26;;;;;;;3.53;2.10;;;24.70;78.80;;;;;;5034759;28;20462;-74
2022/07/17 09:04:05;;;;;;;3.27;2.30;;;24.80;78.30;;;;;;5052666;28;20462;-74
2022/07/17 09:06:32;;;;;;;2.80;2.10;;;24.90;76.90;;;;;;5052607;28;20960;-74
2022/07/17 09:09:04;;;;;;;3.17;2.00;;;25.10;77.90;;;;;;5052319;28;20484;-74
2022/07/17 09:11:43;;;;;;;3.50;2.23;;;25.00;75.90;;;;;;5052186;28;20449;-75
2022/07/17 09:14:11;;;;;;;4.37;2.23;;;25.10;76.70;;;;;;5052115;28;20449;-74
2022/07/17 09:16:49;;;;;;;3.40;2.40;;;25.20;76.40;;;;;;5052097;28;20458;-74
2022/07/17 09:19:30;;;;;;;4.33;2.27;;;25.30;76.10;;;;;;5051364;28;20458;-74
2022/07/17 09:22:12;;;;;;;4.00;2.50;;;25.50;76.70;;;;;;5051937;28;20488;-74
2022/07/17 09:24:47;;;;;;;3.60;2.30;;;25.50;76.40;;;;;;5052103;28;20454;-74
2022/07/17 09:27:17;;;;;;;2.90;2.30;;;25.70;75.20;;;;;;5052003;28;20464;-74
2022/07/17 09:29:53;;;;;;;2.73;2.20;;;25.90;75.70;;;;;;5052373;28;20456;-75
2022/07/17 09:32:20;;;;;;;3.00;2.33;;;26.00;73.60;;;;;;5050919;28;20457;-74
2022/07/17 09:34:49;;;;;;;3.53;2.60;;;26.10;75.10;;;;;;5051910;28;20454;-74
2022/07/17 09:37:17;;;;;;;3.07;2.20;;;26.20;76.00;;;;;;5051837;28;20529;-74
2022/07/17 09:39:45;;;;;;;3.80;2.43;;;26.40;73.90;;;;;;5051879;28;20449;-74
2022/07/17 09:42:23;;;;;;;2.87;2.23;;;26.40;74.30;;;;;;5034001;28;20477;-74
2022/07/17 09:44:57;;;;;;;2.40;2.00;;;26.50;73.80;;;;;;5051864;28;20458;-75
2022/07/17 09:47:25;;;;;;;4.00;2.70;;;26.70;75.20;;;;;;5051714;28;20801;-75
2022/07/17 09:49:55;;;;;;;3.07;2.40;;;26.80;74.20;;;;;;5051877;28;20449;-74
2022/07/17 09:52:24;;;;;;;3.83;2.43;;;27.00;72.70;;;;;;5051710;28;20460;-75
2022/07/17 09:54:53;;;;;;;3.87;2.70;;;27.00;73.20;;;;;;5051844;28;20508;-75
2022/07/17 09:57:24;;;;;;;4.37;2.30;;;27.20;73.60;;;;;;5051651;28;20540;-75
2022/07/17 09:59:51;;;;;;;3.70;2.43;;;27.30;71.60;;;;;;5051725;28;20450;-75
2022/07/17 10:02:20;;;;;;;2.77;2.20;;;27.40;71.50;;;;;;5051473;28;20491;-75
2022/07/17 10:04:48;;;;;;;3.03;2.30;;;27.60;71.00;;;;;;5051753;28;20454;-75
2022/07/17 10:07:23;;;;;;;3.17;2.23;;;27.80;70.10;;;;;;5052168;28;20460;-75
2022/07/17 10:09:50;;;;;;;2.67;2.30;;;27.90;71.00;;;;;;5051793;28;20954;-75
2022/07/17 10:12:18;;;;;;;3.47;2.50;;;28.00;69.90;;;;;;5051511;28;20514;-75
2022/07/17 10:14:49;;;;;;;3.03;2.40;;;28.20;70.10;;;;;;5051630;28;20462;-75
2022/07/17 10:17:21;;;;;;;2.90;2.20;;;28.20;67.80;;;;;;5051472;28;20457;-75
2022/07/17 10:19:50;;;;;;;3.63;2.20;;;28.20;68.00;;;;;;5051347;28;20468;-75
2022/07/17 10:22:19;;;;;;;3.40;2.27;;;28.30;69.10;;;;;;5051382;28;20805;-75
2022/07/17 10:24:48;;;;;;;2.43;2.00;;;28.30;67.30;;;;;;5051219;28;20449;-74
2022/07/17 10:27:22;;;;;;;3.80;2.67;;;28.40;68.30;;;;;;5051447;28;20474;-75
2022/07/17 10:30:01;;;;;;;5.20;2.63;;;28.40;66.20;;;;;;5051622;28;20458;-75
2022/07/17 10:32:29;;;;;;;3.27;2.27;;;28.30;66.20;;;;;;5051610;28;20556;-75
2022/07/17 10:35:00;;;;;;;3.33;2.30;;;28.30;67.70;;;;;;5051637;28;20453;-74
2022/07/17 10:37:33;;;;;;;3.10;2.37;;;28.40;67.20;;;;;;5051160;28;20856;-75
2022/07/17 10:40:04;;;;;;;3.07;2.20;;;28.40;67.80;;;;;;5051485;28;20511;-75
2022/07/17 10:42:59;;;;;;;3.60;2.60;;;28.40;67.20;;;;;;5051391;28;20568;-75
2022/07/17 10:45:35;;;;;;;2.67;2.00;;;28.50;66.10;;;;;;5054957;28;20464;-75
2022/07/17 10:48:05;;;;;;;3.60;2.20;;;28.70;65.40;;;;;;5054956;28;20485;-75
2022/07/17 10:50:35;;;;;;;3.57;2.37;;;28.80;63.90;;;;;;5054799;28;20465;-74
2022/07/17 10:53:07;;;;;;;3.33;2.40;;;29.10;63.00;;;;;;5055135;28;20494;-75
2022/07/17 10:55:34;;;;;;;2.63;2.17;;;29.20;61.40;;;;;;5037704;28;20461;-75
2022/07/17 10:58:02;;;;;;;3.00;2.53;;;29.30;62.40;;;;;;5054778;28;20460;-75
2022/07/17 11:00:30;;;;;;;3.23;2.00;;;29.40;62.00;;;;;;5054813;28;20461;-75
2022/07/17 11:02:57;;;;;;;3.70;2.60;;;29.60;61.40;;;;;;5037109;28;20482;-75
2022/07/17 11:05:24;;;;;;;4.00;2.47;;;29.80;62.00;;;;;;5054792;28;20449;-74
2022/07/17 11:07:58;;;;;;;3.17;2.10;;;29.80;60.30;;;;;;5054782;28;20454;-75
2022/07/17 11:10:28;;;;;;;2.40;1.90;;;29.90;62.40;;;;;;5054467;28;20488;-75
2022/07/17 11:12:56;;;;;;;2.73;1.73;;;30.10;61.60;;;;;;5054491;28;20584;-75
2022/07/17 11:15:23;;;;;;;2.80;2.10;;;30.20;61.70;;;;;;5054393;28;20454;-75
2022/07/17 11:17:51;;;;;;;2.80;2.43;;;30.30;60.70;;;;;;5054248;28;20943;-75
2022/07/17 11:20:23;;;;;;;2.67;2.13;;;30.30;62.40;;;;;;5054251;28;20469;-75
2022/07/17 11:22:58;;;;;;;2.40;2.10;;;30.50;60.60;;;;;;5054106;28;20493;-75
2022/07/17 11:25:27;;;;;;;2.90;2.30;;;30.60;60.90;;;;;;5055031;28;20496;-75
2022/07/17 11:27:54;;;;;;;3.13;2.30;;;30.90;60.50;;;;;;5055090;28;20457;-75
2022/07/17 11:30:23;;;;;;;3.30;2.27;;;31.10;58.70;;;;;;5055447;28;20446;-75
2022/07/17 11:32:50;;;;;;;2.67;1.97;;;31.20;60.00;;;;;;5054247;28;20507;-74
2022/07/17 11:35:19;;;;;;;2.70;2.20;;;31.40;59.70;;;;;;5053955;28;20465;-75
2022/07/17 11:37:48;;;;;;;3.03;2.50;;;31.60;59.70;;;;;;5053791;28;20532;-75
2022/07/17 11:40:16;;;;;;;3.03;2.33;;;31.80;58.30;;;;;;5053917;28;20957;-75
2022/07/17 11:42:47;;;;;;;2.53;2.00;;;32.10;58.00;;;;;;5054200;28;20478;-75
2022/07/17 11:45:15;;;;;;;2.53;2.10;;;32.20;58.20;;;;;;5036054;28;20825;-75
2022/07/17 11:47:45;;;;;;;2.20;1.97;;;32.40;58.60;;;;;;5035997;28;20865;-74
2022/07/17 11:50:15;;;;;;;2.77;2.27;;;32.50;58.60;;;;;;5053882;28;20531;-75
2022/07/17 11:52:48;;;;;;;2.70;2.13;;;32.50;56.20;;;;;;5053675;28;20466;-75
2022/07/17 11:55:16;;;;;;;2.53;2.10;;;32.50;55.50;;;;;;5036126;28;20461;-75
2022/07/17 11:57:47;;;;;;;4.07;2.13;;;32.80;55.60;;;;;;5035708;28;20837;-75
2022/07/17 12:00:17;;;;;;;2.53;2.07;;;33.00;54.40;;;;;;5053865;28;20952;-75
2022/07/17 12:02:44;;;;;;;2.77;2.10;;;33.10;55.10;;;;;;5052595;28;20531;-75
2022/07/17 12:05:12;;;;;;;2.83;2.30;;;33.20;52.80;;;;;;5053490;28;20816;-75
2022/07/17 12:07:48;;;;;;;3.20;2.33;;;33.30;52.40;;;;;;5052157;28;20468;-75
2022/07/17 12:10:17;;;;;;;2.60;2.30;;;33.50;51.50;;;;;;5053676;28;20479;-75
2022/07/17 12:12:57;;;;;;;2.17;1.97;;;33.50;51.60;;;;;;5053285;28;20463;-75
2022/07/17 12:15:39;;;;;;;3.03;2.20;;;33.10;52.00;;;;;;5053512;28;20461;-75
2022/07/17 12:18:09;;;;;;;4.07;2.10;;;33.30;53.20;;;;;;5053419;28;20457;-75
2022/07/17 12:20:44;;;;;;;3.53;2.37;;;33.30;52.00;;;;;;5053437;28;21140;-75
2022/07/17 12:23:27;;;;;;;2.47;2.10;;;33.40;53.00;;;;;;5053244;28;20481;-75
2022/07/17 12:26:05;;;;;;;2.40;1.93;;;33.10;52.70;;;;;;5053140;28;20465;-75
2022/07/17 12:28:35;;;;;;;2.47;2.07;;;33.40;52.80;;;;;;5053459;28;20460;-75
2022/07/17 12:31:02;;;;;;;3.60;2.00;;;33.70;53.00;;;;;;5053696;28;20465;-76
2022/07/17 12:33:34;;;;;;;3.63;2.60;;;33.80;53.50;;;;;;5053151;28;20932;-76
2022/07/17 12:36:03;;;;;;;3.23;2.40;;;33.70;52.20;;;;;;5034420;28;20951;-76
2022/07/17 12:38:31;;;;;;;4.43;2.87;;;33.90;51.80;;;;;;5034003;28;20458;-75
2022/07/17 12:40:59;;;;;;;2.40;2.20;;;34.00;53.40;;;;;;5035751;28;20446;-75
2022/07/17 12:43:26;;;;;;;2.73;2.17;;;34.00;51.10;;;;;;5053038;28;20821;-75
2022/07/17 12:45:56;;;;;;;4.60;2.60;;;34.10;52.50;;;;;;5052868;28;20461;-75
2022/07/17 12:48:23;;;;;;;3.50;2.60;;;34.20;52.10;;;;;;5052557;28;20457;-76
2022/07/17 12:50:50;;;;;;;4.63;2.70;;;34.40;52.40;;;;;;5052475;28;20457;-75
2022/07/17 12:53:18;;;;;;;3.90;2.63;;;34.60;51.00;;;;;;5052449;28;20479;-75
2022/07/17 12:55:46;;;;;;;4.00;2.40;;;34.60;52.30;;;;;;5052645;28;20937;-75